createdAt,value
2023-04-15T00:01:07.903Z,5.36
2023-04-15T00:03:35.685Z,5.33
2023-04-15T00:06:03.804Z,5.30
2023-04-15T00:08:31.232Z,5.23
2023-04-15T00:11:03.126Z,5.34
2023-04-15T00:13:30.874Z,5.27
2023-04-15T00:15:58.222Z,5.28
2023-04-15T00:18:25.816Z,5.31
2023-04-15T00:20:53.574Z,5.31
2023-04-15T00:23:20.803Z,5.23
2023-04-15T00:25:47.937Z,5.36
2023-04-15T00:28:15.159Z,5.46
2023-04-15T00:30:42.725Z,5.50
2023-04-15T00:33:10.069Z,5.52
2023-04-15T00:35:37.589Z,5.42
2023-04-15T00:38:05.883Z,5.52
2023-04-15T00:40:33.468Z,5.50
2023-04-15T00:43:00.530Z,5.40
2023-04-15T00:45:28.285Z,5.53
2023-04-15T00:47:55.966Z,5.45
2023-04-15T00:50:23.221Z,5.49
2023-04-15T00:52:50.977Z,5.26
2023-04-15T00:55:19.301Z,5.40
2023-04-15T00:57:46.923Z,5.44
2023-04-15T01:00:14.509Z,5.41
2023-04-15T01:02:41.609Z,5.53
2023-04-15T01:05:09.510Z,5.51
2023-04-15T01:07:36.993Z,5.57
2023-04-15T01:10:04.991Z,5.64
2023-04-15T01:12:33.968Z,5.56
2023-04-15T01:15:02.368Z,5.64
2023-04-15T01:17:30.188Z,5.56
2023-04-15T01:19:58.328Z,5.46
2023-04-15T01:22:27.613Z,5.56
2023-04-15T01:25:02.728Z,5.59
2023-04-15T01:27:30.389Z,5.59
2023-04-15T01:29:57.634Z,5.59
2023-04-15T01:32:25.118Z,5.56
2023-04-15T01:34:52.244Z,5.69
2023-04-15T01:37:19.384Z,5.67
2023-04-15T01:39:46.436Z,5.53
2023-04-15T01:42:13.746Z,5.57
2023-04-15T01:44:40.814Z,5.59
2023-04-15T01:47:08.603Z,5.63
2023-04-15T01:49:36.173Z,5.62
2023-04-15T01:52:03.088Z,5.58
2023-04-15T01:54:30.145Z,5.63
2023-04-15T01:56:57.068Z,5.53
2023-04-15T01:59:24.224Z,5.64
2023-04-15T02:01:52.522Z,5.51
2023-04-15T02:04:19.463Z,5.64
2023-04-15T02:06:46.507Z,5.65
2023-04-15T02:09:13.567Z,5.61
2023-04-15T02:11:41.159Z,5.64
2023-04-15T02:14:08.453Z,5.49
2023-04-15T02:16:35.653Z,5.51
2023-04-15T02:19:03.973Z,5.44
2023-04-15T02:21:31.081Z,5.59
2023-04-15T02:23:58.608Z,5.58
2023-04-15T02:26:25.763Z,5.67
2023-04-15T02:28:53.080Z,5.72
2023-04-15T02:31:21.837Z,5.64
2023-04-15T02:33:49.458Z,5.65
2023-04-15T02:36:16.632Z,5.72
2023-04-15T02:38:43.503Z,5.71
2023-04-15T02:41:10.715Z,5.67
2023-04-15T02:43:40.025Z,5.81
2023-04-15T02:46:07.376Z,5.80
2023-04-15T02:48:34.583Z,5.85
2023-04-15T02:51:15.561Z,5.78
2023-04-15T02:53:43.003Z,5.77
2023-04-15T02:56:10.013Z,5.78
2023-04-15T02:58:38.009Z,5.75
2023-04-15T03:01:05.495Z,5.60
2023-04-15T03:03:32.816Z,5.74
2023-04-15T03:06:11.805Z,5.74
2023-04-15T03:08:38.780Z,5.78
2023-04-15T03:11:05.799Z,5.92
2023-04-15T03:13:32.664Z,5.86
2023-04-15T03:15:59.687Z,5.83
2023-04-15T03:18:26.739Z,5.72
2023-04-15T03:20:53.592Z,5.71
2023-04-15T03:23:20.835Z,5.70
2023-04-15T03:25:47.724Z,5.63
2023-04-15T03:28:14.611Z,5.58
2023-04-15T03:30:41.981Z,5.53
2023-04-15T03:33:09.213Z,5.54
2023-04-15T03:35:36.340Z,5.74
2023-04-15T03:38:03.351Z,5.77
2023-04-15T03:40:30.455Z,5.82
2023-04-15T03:42:57.651Z,5.89
2023-04-15T03:45:24.613Z,5.86
2023-04-15T03:47:51.773Z,5.88
2023-04-15T03:50:19.125Z,5.86
2023-04-15T03:52:46.585Z,5.77
2023-04-15T03:55:14.557Z,5.72
2023-04-15T03:57:41.613Z,5.76
2023-04-15T04:00:10.704Z,5.76
2023-04-15T04:02:37.970Z,5.90
2023-04-15T04:05:05.243Z,5.84
2023-04-15T04:07:32.417Z,5.80
2023-04-15T04:09:59.435Z,6.01
2023-04-15T04:12:26.504Z,6.06
2023-04-15T04:14:53.474Z,5.88
2023-04-15T04:17:20.692Z,6.02
2023-04-15T04:19:48.429Z,6.05
2023-04-15T04:22:15.858Z,6.20
2023-04-15T04:24:42.689Z,6.24
2023-04-15T04:27:09.627Z,6.22
2023-04-15T04:29:36.943Z,6.24
2023-04-15T04:32:04.334Z,6.26
2023-04-15T04:34:32.612Z,6.14
2023-04-15T04:36:59.703Z,6.19
2023-04-15T04:39:26.790Z,6.30
2023-04-15T04:41:54.096Z,6.20
2023-04-15T04:44:20.957Z,6.30
2023-04-15T04:46:47.961Z,6.33
2023-04-15T04:49:15.125Z,6.45
2023-04-15T04:51:42.321Z,6.47
2023-04-15T04:54:09.916Z,6.48
2023-04-15T04:56:39.294Z,6.57
2023-04-15T04:59:07.978Z,6.61
2023-04-15T05:01:35.161Z,6.59
2023-04-15T05:04:02.297Z,6.60
2023-04-15T05:06:30.648Z,6.70
2023-04-15T05:08:58.555Z,6.80
2023-04-15T05:11:25.896Z,6.84
2023-04-15T05:13:52.866Z,7.18
2023-04-15T05:16:20.669Z,7.34
2023-04-15T05:18:47.942Z,7.31
2023-04-15T05:21:15.206Z,7.67
2023-04-15T05:23:42.470Z,7.65
2023-04-15T05:26:09.551Z,7.83
2023-04-15T05:28:36.757Z,7.90
2023-04-15T05:31:03.993Z,7.86
2023-04-15T05:33:31.535Z,7.93
2023-04-15T05:35:58.589Z,8.04
2023-04-15T05:38:26.208Z,7.89
2023-04-15T05:40:53.740Z,7.93
2023-04-15T05:43:20.923Z,7.84
2023-04-15T05:45:47.864Z,7.87
2023-04-15T05:48:15.058Z,7.79
2023-04-15T05:50:42.654Z,7.79
2023-04-15T05:53:09.794Z,7.86
2023-04-15T05:55:37.013Z,7.73
2023-04-15T05:58:04.285Z,7.96
2023-04-15T06:00:31.375Z,8.19
2023-04-15T06:02:59.205Z,8.20
2023-04-15T06:05:26.296Z,8.17
2023-04-15T06:07:53.425Z,8.30
2023-04-15T06:10:20.600Z,8.32
2023-04-15T06:12:47.813Z,8.35
2023-04-15T06:15:15.378Z,8.12
2023-04-15T06:17:43.023Z,8.32
2023-04-15T06:20:11.480Z,8.16
2023-04-15T06:22:39.492Z,7.99
2023-04-15T06:25:08.821Z,8.07
2023-04-15T06:27:35.985Z,8.09
2023-04-15T06:30:04.363Z,7.97
2023-04-15T06:32:32.596Z,7.79
2023-04-15T06:34:59.761Z,7.72
2023-04-15T06:37:26.862Z,7.74
2023-04-15T06:39:54.041Z,7.72
2023-04-15T06:42:21.309Z,7.67
2023-04-15T06:44:48.338Z,7.73
2023-04-15T06:47:15.563Z,7.84
2023-04-15T06:49:43.306Z,7.97
2023-04-15T06:52:11.454Z,8.07
2023-04-15T06:54:38.658Z,8.17
2023-04-15T06:57:07.283Z,8.31
2023-04-15T06:59:34.207Z,8.75
2023-04-15T07:02:01.633Z,8.69
2023-04-15T07:04:28.602Z,8.80
2023-04-15T07:06:58.275Z,9.11
2023-04-15T07:09:25.814Z,8.88
2023-04-15T07:11:53.389Z,8.88
2023-04-15T07:14:21.140Z,8.69
2023-04-15T07:16:48.587Z,8.64
2023-04-15T07:19:15.924Z,8.77
2023-04-15T07:21:43.073Z,8.67
2023-04-15T07:24:10.641Z,8.46
2023-04-15T07:26:37.782Z,8.57
2023-04-15T07:29:05.158Z,8.71
2023-04-15T07:31:32.532Z,8.82
2023-04-15T07:34:00.025Z,9.12
2023-04-15T07:36:27.069Z,9.53
2023-04-15T07:38:55.412Z,9.83
2023-04-15T07:41:22.534Z,9.86
2023-04-15T07:43:50.188Z,9.75
2023-04-15T07:46:17.297Z,9.65
2023-04-15T07:48:44.544Z,9.76
2023-04-15T07:51:13.053Z,9.85
2023-04-15T07:53:40.079Z,10.17
2023-04-15T07:56:07.560Z,10.11
2023-04-15T07:58:35.037Z,10.04
2023-04-15T08:01:02.088Z,9.91
2023-04-15T08:03:29.503Z,9.76
2023-04-15T08:05:57.880Z,9.79
2023-04-15T08:08:26.485Z,9.67
2023-04-15T08:10:53.753Z,9.59
2023-04-15T08:13:21.118Z,9.53
2023-04-15T08:16:13.880Z,9.64
2023-04-15T08:18:42.393Z,9.80
2023-04-15T08:21:09.546Z,9.94
2023-04-15T08:23:37.168Z,10.39
2023-04-15T08:26:04.404Z,10.40
2023-04-15T08:28:31.588Z,10.18
2023-04-15T08:30:59.099Z,10.18
2023-04-15T08:33:26.244Z,9.99
2023-04-15T08:35:53.396Z,10.24
2023-04-15T08:38:20.412Z,10.34
2023-04-15T08:40:47.835Z,10.32
2023-04-15T08:43:28.780Z,10.28
2023-04-15T08:45:56.102Z,10.49
2023-04-15T08:48:24.697Z,10.42
2023-04-15T08:50:52.243Z,10.45
2023-04-15T08:53:19.307Z,10.49
2023-04-15T08:55:51.274Z,10.19
2023-04-15T08:58:19.958Z,10.68
2023-04-15T09:00:47.466Z,10.98
2023-04-15T09:03:15.239Z,11.25
2023-04-15T09:05:42.547Z,12.09
2023-04-15T09:08:10.004Z,11.67
2023-04-15T09:10:37.937Z,11.49
2023-04-15T09:13:04.851Z,11.69
2023-04-15T09:15:33.271Z,11.68
2023-04-15T09:18:00.918Z,11.96
2023-04-15T09:20:28.071Z,12.17
2023-04-15T09:22:55.682Z,12.26
2023-04-15T09:25:22.715Z,12.51
2023-04-15T09:27:50.705Z,12.00
2023-04-15T09:30:18.092Z,11.59
2023-04-15T09:33:11.087Z,11.47
2023-04-15T09:35:38.606Z,11.61
2023-04-15T09:38:08.911Z,11.50
2023-04-15T09:40:41.203Z,11.74
2023-04-15T09:43:13.003Z,11.75
2023-04-15T09:45:48.634Z,11.76
2023-04-15T09:48:27.345Z,12.56
2023-04-15T09:50:58.484Z,13.75
2023-04-15T09:53:26.561Z,12.68
2023-04-15T09:55:56.327Z,12.64
2023-04-15T09:58:32.600Z,12.47
2023-04-15T10:01:01.907Z,12.52
2023-04-15T10:03:32.186Z,12.24
2023-04-15T10:06:00.871Z,12.35
2023-04-15T10:08:30.744Z,12.48
2023-04-15T10:10:58.444Z,12.49
2023-04-15T10:13:29.588Z,13.02
2023-04-15T10:16:10.966Z,13.62
2023-04-15T10:18:44.060Z,13.22
2023-04-15T10:21:11.916Z,12.62
2023-04-15T10:23:39.962Z,12.69
2023-04-15T10:26:08.447Z,12.51
2023-04-15T10:28:35.571Z,12.51
2023-04-15T10:31:04.991Z,12.60
2023-04-15T10:33:32.895Z,12.54
2023-04-15T10:36:01.334Z,12.78
2023-04-15T10:38:39.445Z,12.56
2023-04-15T10:41:22.814Z,12.95
2023-04-15T10:43:51.742Z,13.90
2023-04-15T10:46:21.772Z,14.25
2023-04-15T10:48:50.347Z,13.39
2023-04-15T10:51:26.934Z,12.72
2023-04-15T10:53:59.561Z,12.82
2023-04-15T10:56:28.866Z,13.33
2023-04-15T10:58:59.599Z,13.73
2023-04-15T11:01:56.595Z,12.96
2023-04-15T11:04:53.422Z,12.35
2023-04-15T11:07:48.577Z,11.77
2023-04-15T11:10:18.820Z,11.64
2023-04-15T11:12:46.661Z,11.83
2023-04-15T11:15:33.809Z,12.73
2023-04-15T11:18:30.728Z,13.33
2023-04-15T11:21:06.779Z,12.98
2023-04-15T11:23:46.970Z,12.54
2023-04-15T11:26:13.964Z,13.38
2023-04-15T11:28:43.397Z,13.40
2023-04-15T11:31:16.687Z,14.25
2023-04-15T11:33:59.451Z,13.70
2023-04-15T11:36:28.086Z,13.86
2023-04-15T11:38:56.018Z,13.14
2023-04-15T11:41:23.870Z,12.98
2023-04-15T11:43:52.725Z,12.72
2023-04-15T11:46:22.763Z,12.47
2023-04-15T11:48:50.338Z,12.44
2023-04-15T11:51:18.694Z,11.94
2023-04-15T11:53:47.795Z,11.88
2023-04-15T11:56:23.329Z,11.91
2023-04-15T11:58:54.754Z,12.07
2023-04-15T12:01:21.933Z,12.45
2023-04-15T12:03:50.403Z,13.17
2023-04-15T12:06:23.590Z,13.67
2023-04-15T12:09:16.751Z,13.92
2023-04-15T12:11:49.794Z,14.10
2023-04-15T12:14:30.752Z,13.66
2023-04-15T12:17:03.302Z,14.39
2023-04-15T12:19:42.390Z,13.58
2023-04-15T12:22:11.763Z,13.12
2023-04-15T12:24:39.566Z,13.07
2023-04-15T12:27:08.709Z,13.02
2023-04-15T12:29:38.415Z,14.40
2023-04-15T12:32:08.612Z,13.90
2023-04-15T12:34:38.176Z,13.99
2023-04-15T12:37:07.818Z,13.67
2023-04-15T12:39:40.716Z,13.10
2023-04-15T12:42:08.436Z,13.51
2023-04-15T12:44:36.799Z,13.22
2023-04-15T12:47:04.452Z,13.24
2023-04-15T12:49:32.871Z,13.19
2023-04-15T12:52:02.309Z,13.34
2023-04-15T12:54:30.925Z,13.73
2023-04-15T12:56:58.859Z,14.06
2023-04-15T12:59:26.058Z,13.93
2023-04-15T13:01:54.148Z,13.75
2023-04-15T13:04:21.907Z,13.71
2023-04-15T13:06:49.552Z,13.52
2023-04-15T13:09:16.642Z,12.88
2023-04-15T13:11:43.762Z,13.00
2023-04-15T13:14:13.878Z,12.51
2023-04-15T13:16:41.563Z,12.38
2023-04-15T13:19:08.787Z,12.19
2023-04-15T13:21:36.754Z,12.28
2023-04-15T13:24:05.146Z,12.28
2023-04-15T13:26:33.117Z,12.06
2023-04-15T13:29:01.498Z,12.15
2023-04-15T13:31:29.427Z,12.50
2023-04-15T13:33:57.680Z,12.63
2023-04-15T13:36:24.891Z,12.66
2023-04-15T13:38:52.566Z,12.56
2023-04-15T13:41:21.359Z,12.96
2023-04-15T13:43:48.660Z,12.76
2023-04-15T13:46:16.279Z,12.49
2023-04-15T13:48:43.892Z,12.84
2023-04-15T13:51:11.158Z,12.81
2023-04-15T13:53:39.763Z,12.58
2023-04-15T13:56:10.610Z,12.35
2023-04-15T13:58:41.785Z,12.22
2023-04-15T14:01:09.313Z,12.30
2023-04-15T14:03:36.921Z,12.03
2023-04-15T14:06:05.752Z,12.10
2023-04-15T14:08:33.171Z,12.19
2023-04-15T14:11:00.801Z,12.20
2023-04-15T14:13:27.946Z,12.45
2023-04-15T14:15:55.354Z,12.49
2023-04-15T14:18:22.945Z,12.51
2023-04-15T14:20:50.116Z,12.47
2023-04-15T14:23:17.779Z,12.45
2023-04-15T14:25:46.828Z,12.39
2023-04-15T14:28:15.960Z,12.14
2023-04-15T14:30:43.742Z,12.11
2023-04-15T14:33:10.970Z,11.86
2023-04-15T14:35:39.163Z,11.69
2023-04-15T14:38:10.940Z,11.69
2023-04-15T14:40:38.837Z,11.80
2023-04-15T14:43:06.094Z,11.86
2023-04-15T14:45:33.193Z,11.85
2023-04-15T14:48:00.628Z,11.74
2023-04-15T14:50:28.269Z,11.85
2023-04-15T14:52:55.746Z,11.83
2023-04-15T14:55:23.776Z,11.94
2023-04-15T14:57:51.602Z,11.70
2023-04-15T15:00:19.036Z,11.76
2023-04-15T15:02:47.646Z,11.59
2023-04-15T15:05:14.840Z,11.74
2023-04-15T15:07:42.114Z,11.73
2023-04-15T15:10:09.163Z,11.77
2023-04-15T15:12:36.340Z,11.98
2023-04-15T15:15:15.475Z,12.04
2023-04-15T15:17:46.904Z,11.90
2023-04-15T15:20:14.135Z,12.05
2023-04-15T15:22:41.074Z,11.92
2023-04-15T15:25:08.428Z,11.90
2023-04-15T15:27:38.110Z,11.73
2023-04-15T15:30:07.166Z,11.81
2023-04-15T15:32:34.750Z,11.84
2023-04-15T15:35:02.366Z,11.79
2023-04-15T15:37:30.930Z,11.83
2023-04-15T15:39:57.995Z,11.82
2023-04-15T15:42:25.491Z,11.76
2023-04-15T15:44:53.245Z,11.75
2023-04-15T15:47:22.167Z,11.70
2023-04-15T15:49:49.250Z,11.68
2023-04-15T15:52:16.367Z,11.73
2023-04-15T15:54:43.583Z,11.72
2023-04-15T15:57:11.356Z,11.77
2023-04-15T15:59:41.234Z,11.63
2023-04-15T16:02:13.469Z,11.58
2023-04-15T16:04:41.730Z,11.59
2023-04-15T16:07:10.196Z,11.41
2023-04-15T16:09:37.536Z,11.47
2023-04-15T16:12:04.765Z,11.34
2023-04-15T16:14:31.978Z,11.19
2023-04-15T16:16:59.497Z,11.35
2023-04-15T16:19:26.472Z,11.23
2023-04-15T16:21:54.138Z,10.66
2023-04-15T16:24:21.431Z,10.05
2023-04-15T16:26:48.428Z,9.38
2023-04-15T16:29:15.777Z,8.97
2023-04-15T16:31:43.539Z,8.80
2023-04-15T16:34:10.626Z,8.73
2023-04-15T16:36:40.789Z,8.66
2023-04-15T16:39:07.913Z,8.71
2023-04-15T16:41:35.718Z,8.68
2023-04-15T16:44:03.570Z,8.88
2023-04-15T16:46:31.057Z,8.83
2023-04-15T16:48:58.375Z,9.07
2023-04-15T16:51:26.393Z,9.10
2023-04-15T16:53:54.398Z,9.04
2023-04-15T16:56:22.132Z,8.96
2023-04-15T16:58:49.672Z,8.86
2023-04-15T17:01:17.177Z,8.69
2023-04-15T17:03:45.105Z,8.62
2023-04-15T17:06:17.871Z,8.47
2023-04-15T17:08:45.088Z,8.52
2023-04-15T17:11:12.522Z,8.50
2023-04-15T17:13:39.805Z,8.47
2023-04-15T17:16:19.024Z,8.51
2023-04-15T17:18:47.556Z,8.72
2023-04-15T17:21:16.659Z,8.67
2023-04-15T17:23:43.463Z,8.66
2023-04-15T17:26:10.781Z,8.64
2023-04-15T17:28:38.512Z,8.69
2023-04-15T17:31:06.203Z,8.74
2023-04-15T17:34:00.882Z,8.80
2023-04-15T17:36:20.294Z,8.81
2023-04-15T17:38:47.400Z,8.80
2023-04-15T17:41:14.911Z,8.67
2023-04-15T17:43:43.863Z,8.76
2023-04-15T17:46:19.993Z,8.82
2023-04-15T17:48:48.256Z,8.79
2023-04-15T17:51:15.751Z,8.70
2023-04-15T17:53:45.329Z,8.73
2023-04-15T17:56:15.972Z,8.68
2023-04-15T17:58:44.196Z,8.65
2023-04-15T18:01:12.375Z,8.56
2023-04-15T18:03:41.046Z,8.47
2023-04-15T18:06:08.158Z,8.48
2023-04-15T18:08:35.572Z,8.43
2023-04-15T18:11:02.569Z,8.38
2023-04-15T18:13:30.376Z,8.35
2023-04-15T18:15:58.088Z,8.17
2023-04-15T18:18:26.113Z,8.30
2023-04-15T18:20:53.575Z,8.27
2023-04-15T18:23:21.830Z,8.10
2023-04-15T18:25:49.222Z,8.12
2023-04-15T18:28:16.848Z,8.07
2023-04-15T18:30:44.277Z,7.99
2023-04-15T18:33:12.301Z,7.91
2023-04-15T18:35:43.143Z,8.00
2023-04-15T18:38:10.580Z,7.90
2023-04-15T18:40:38.584Z,7.92
2023-04-15T18:43:09.042Z,7.93
2023-04-15T18:45:37.173Z,7.87
2023-04-15T18:48:05.617Z,7.77
2023-04-15T18:50:32.763Z,7.87
2023-04-15T18:53:03.840Z,7.85
2023-04-15T18:55:31.921Z,7.63
2023-04-15T18:58:08.919Z,7.80
2023-04-15T19:00:40.977Z,7.76
2023-04-15T19:03:08.423Z,7.71
2023-04-15T19:05:37.024Z,7.76
2023-04-15T19:08:05.944Z,7.72
2023-04-15T19:10:35.109Z,7.68
2023-04-15T19:13:13.223Z,7.58
2023-04-15T19:15:41.352Z,7.59
2023-04-15T19:18:11.212Z,7.51
2023-04-15T19:20:40.268Z,7.56
2023-04-15T19:23:09.067Z,7.46
2023-04-15T19:25:38.627Z,7.50
2023-04-15T19:28:05.991Z,7.29
2023-04-15T19:30:33.259Z,7.47
2023-04-15T19:33:01.588Z,7.44
2023-04-15T19:35:32.084Z,7.34
2023-04-15T19:38:00.035Z,7.33
2023-04-15T19:40:27.742Z,7.35
2023-04-15T19:42:55.964Z,7.30
2023-04-15T19:45:23.729Z,7.13
2023-04-15T19:47:51.725Z,7.27
2023-04-15T19:50:25.021Z,7.08
2023-04-15T19:52:53.385Z,7.09
2023-04-15T19:55:20.703Z,7.17
2023-04-15T19:57:49.317Z,7.21
2023-04-15T20:00:17.501Z,7.24
2023-04-15T20:02:45.959Z,7.11
2023-04-15T20:05:14.496Z,7.13
2023-04-15T20:07:48.248Z,7.15
2023-04-15T20:10:15.856Z,7.22
2023-04-15T20:12:50.904Z,7.10
2023-04-15T20:15:24.191Z,7.26
2023-04-15T20:17:52.378Z,7.13
2023-04-15T20:20:20.260Z,7.21
2023-04-15T20:22:48.573Z,7.13
2023-04-15T20:25:16.488Z,7.16
2023-04-15T20:27:44.076Z,7.14
2023-04-15T20:30:13.220Z,7.16
2023-04-15T20:32:40.611Z,7.23
2023-04-15T20:35:09.325Z,7.13
2023-04-15T20:37:38.100Z,7.13
2023-04-15T20:40:07.843Z,7.16
2023-04-15T20:42:35.941Z,7.12
2023-04-15T20:45:03.807Z,7.08
2023-04-15T20:47:31.064Z,7.15
2023-04-15T20:49:58.652Z,7.10
2023-04-15T20:52:26.434Z,7.05
2023-04-15T20:54:53.500Z,7.13
2023-04-15T20:57:21.297Z,7.13
2023-04-15T20:59:48.782Z,7.05
2023-04-15T21:02:16.896Z,7.11
2023-04-15T21:04:44.145Z,7.09
2023-04-15T21:07:11.058Z,6.96
2023-04-15T21:09:41.306Z,7.07
2023-04-15T21:12:09.285Z,6.88
2023-04-15T21:14:37.103Z,7.06
2023-04-15T21:17:09.362Z,7.02
2023-04-15T21:19:38.349Z,7.02
2023-04-15T21:22:05.737Z,7.06
2023-04-15T21:24:32.697Z,7.08
2023-04-15T21:26:59.736Z,7.00
2023-04-15T21:29:27.031Z,6.98
2023-04-15T21:31:54.184Z,6.93
2023-04-15T21:34:21.653Z,6.92
2023-04-15T21:36:48.719Z,6.97
2023-04-15T21:39:15.923Z,6.89
2023-04-15T21:41:42.851Z,6.96
2023-04-15T21:44:10.796Z,6.98
2023-04-15T21:46:39.023Z,6.98
2023-04-15T21:49:07.089Z,7.02
2023-04-15T21:51:34.837Z,7.03
2023-04-15T21:54:01.821Z,7.04
2023-04-15T21:56:28.796Z,7.00
2023-04-15T21:58:57.233Z,6.95
2023-04-15T22:01:25.194Z,6.93
2023-04-15T22:03:52.856Z,7.02
2023-04-15T22:06:20.269Z,6.94
2023-04-15T22:08:56.085Z,6.99
2023-04-15T22:11:34.082Z,6.99
2023-04-15T22:14:01.377Z,6.98
2023-04-15T22:16:28.794Z,6.83
2023-04-15T22:18:56.069Z,6.94
2023-04-15T22:21:23.834Z,6.78
2023-04-15T22:23:51.420Z,6.86
2023-04-15T22:26:18.489Z,6.77
2023-04-15T22:28:45.612Z,6.65
2023-04-15T22:31:13.793Z,6.72
2023-04-15T22:33:41.358Z,6.68
2023-04-15T22:36:08.273Z,6.70
2023-04-15T22:38:35.772Z,6.64
2023-04-15T22:41:02.995Z,6.66
2023-04-15T22:43:29.994Z,6.64
2023-04-15T22:45:57.377Z,6.59
2023-04-15T22:48:24.650Z,6.51
2023-04-15T22:50:52.079Z,6.58
2023-04-15T22:53:20.320Z,6.41
2023-04-15T22:55:48.729Z,6.46
2023-04-15T22:58:17.200Z,6.42
2023-04-15T23:00:44.870Z,6.45
2023-04-15T23:03:12.709Z,6.46
2023-04-15T23:05:42.704Z,6.42
2023-04-15T23:08:09.833Z,6.39
2023-04-15T23:10:40.081Z,6.11
2023-04-15T23:13:07.115Z,6.26
2023-04-15T23:15:34.424Z,6.26
2023-04-15T23:18:02.563Z,6.30
2023-04-15T23:20:29.576Z,6.24
2023-04-15T23:22:56.522Z,6.21
2023-04-15T23:25:24.098Z,6.24
2023-04-15T23:27:51.229Z,6.30
2023-04-15T23:30:18.297Z,6.26
2023-04-15T23:32:45.667Z,6.29
2023-04-15T23:35:12.684Z,6.22
2023-04-15T23:37:39.862Z,6.23
2023-04-15T23:40:07.650Z,6.24
2023-04-15T23:42:34.709Z,6.34
2023-04-15T23:45:02.060Z,6.19
2023-04-15T23:47:29.144Z,6.36
2023-04-15T23:49:56.524Z,6.27
2023-04-15T23:52:24.087Z,6.27
2023-04-15T23:54:51.050Z,6.29
2023-04-15T23:57:18.879Z,6.40
2023-04-15T23:59:46.312Z,6.41
